Time;durP1;ratioP1;P1;durP2;ratioP2;P2;SDS_P1;SDS_P2;PMS_P1;PMS_P2;Temp;Humidity;BMP_temperature;BMP_pressure;BME280_temperature;BME280_humidity;BME280_pressure;Samples;Min_cycle;Max_cycle;Signal;HPM_P1;HPM_P2
2021/03/17 00:01:34;;;;;;;26.17;20.27;;;;;;;;;;4994191;28;20093;-66
2021/03/17 00:04:18;;;;;;;26.02;19.25;;;;;;;;;;4994196;28;20081;-66
2021/03/17 00:07:03;;;;;;;26.13;19.90;;;;;;;;;;4994116;28;20042;-65
2021/03/17 00:09:47;;;;;;;27.88;20.42;;;;;;;;;;5007237;28;20041;-65
2021/03/17 00:12:31;;;;;;;24.85;18.70;;;;;;;;;;4994073;28;20125;-65
2021/03/17 00:15:20;;;;;;;26.38;19.65;;;;;;;;;;4991302;28;20104;-65
2021/03/17 00:18:06;;;;;;;23.70;18.58;;;;;;;;;;4993580;28;20053;-64
2021/03/17 00:20:50;;;;;;;25.27;18.88;;;;;;;;;;4994379;28;20037;-65
2021/03/17 00:23:34;;;;;;;28.17;20.20;;;;;;;;;;4993904;28;20077;-65
2021/03/17 00:26:19;;;;;;;26.30;19.50;;;;;;;;;;4994055;28;20038;-65
2021/03/17 00:29:02;;;;;;;24.42;19.65;;;;;;;;;;4994175;28;20037;-66
2021/03/17 00:31:46;;;;;;;26.13;19.90;;;;;;;;;;4994247;28;20065;-66
2021/03/17 00:34:30;;;;;;;25.85;18.52;;;;;;;;;;4993708;28;20045;-66
2021/03/17 00:37:14;;;;;;;26.13;19.30;;;;;;;;;;4993971;28;20052;-66
2021/03/17 00:39:58;;;;;;;23.92;17.35;;;;;;;;;;4993727;28;20046;-66
2021/03/17 00:42:42;;;;;;;24.27;18.42;;;;;;;;;;4994050;28;20034;-66
2021/03/17 00:45:27;;;;;;;27.65;19.40;;;;;;;;;;4993512;28;20076;-65
2021/03/17 00:48:11;;;;;;;24.98;18.60;;;;;;;;;;4994005;28;20034;-65
2021/03/17 00:50:39;;;;;;;28.98;20.17;;;;;;;;;;4993511;28;20026;-65
2021/03/17 00:53:04;;;;;;;27.95;20.85;;;;;;;;;;4975928;28;20089;-65
2021/03/17 00:55:30;;;;;;;25.65;19.73;;;;;;;;;;5008537;28;20129;-66
2021/03/17 00:58:07;;;;;;;26.45;20.15;;;;;;;;;;4979527;28;20071;-65
2021/03/17 01:00:35;;;;;;;24.92;19.80;;;;;;;;;;4979193;28;20030;-65
2021/03/17 01:03:00;;;;;;;26.25;20.17;;;;;;;;;;4996825;28;20054;-65
2021/03/17 01:05:26;;;;;;;25.60;20.23;;;;;;;;;;4996555;28;20064;-65
2021/03/17 01:07:51;;;;;;;26.05;19.73;;;;;;;;;;4996810;28;20053;-65
2021/03/17 01:10:19;;;;;;;26.42;19.77;;;;;;;;;;4996694;28;20454;-65
2021/03/17 01:12:44;;;;;;;27.08;20.45;;;;;;;;;;4996670;28;20030;-65
2021/03/17 01:15:12;;;;;;;32.22;21.50;;;;;;;;;;4978812;28;20045;-65
2021/03/17 01:17:39;;;;;;;27.52;20.67;;;;;;;;;;4979540;28;20038;-65
2021/03/17 01:20:04;;;;;;;27.10;20.60;;;;;;;;;;4996358;28;20030;-65
2021/03/17 01:22:30;;;;;;;27.35;20.83;;;;;;;;;;4996421;28;20030;-65
2021/03/17 01:24:56;;;;;;;29.83;21.27;;;;;;;;;;4978954;28;20117;-65
2021/03/17 01:27:21;;;;;;;28.08;20.58;;;;;;;;;;4979136;28;20027;-64
2021/03/17 01:29:46;;;;;;;27.85;20.85;;;;;;;;;;4996137;28;20382;-64
2021/03/17 01:32:13;;;;;;;27.55;20.85;;;;;;;;;;4996444;28;20033;-65
2021/03/17 01:34:38;;;;;;;26.67;20.58;;;;;;;;;;4996391;28;20030;-65
2021/03/17 01:37:04;;;;;;;31.50;21.65;;;;;;;;;;5011700;28;20406;-65
2021/03/17 01:39:29;;;;;;;28.92;21.70;;;;;;;;;;4978809;28;20034;-65
2021/03/17 01:41:55;;;;;;;27.60;21.08;;;;;;;;;;4979000;28;20023;-65
2021/03/17 01:44:20;;;;;;;28.13;19.95;;;;;;;;;;4978748;28;20058;-64
2021/03/17 01:46:46;;;;;;;29.58;20.30;;;;;;;;;;5010877;28;20025;-64
2021/03/17 01:49:11;;;;;;;31.35;23.38;;;;;;;;;;4996077;28;20044;-64
2021/03/17 01:51:37;;;;;;;29.13;22.58;;;;;;;;;;4995836;28;20106;-64
2021/03/17 01:54:04;;;;;;;30.55;22.50;;;;;;;;;;4995924;28;20030;-64
2021/03/17 01:56:30;;;;;;;27.83;21.23;;;;;;;;;;4978181;28;20029;-64
2021/03/17 01:58:55;;;;;;;29.48;22.40;;;;;;;;;;4995689;28;20034;-64
2021/03/17 02:01:22;;;;;;;30.38;21.67;;;;;;;;;;5010786;28;20491;-63
2021/03/17 02:03:48;;;;;;;30.15;22.48;;;;;;;;;;4995809;28;20029;-64
2021/03/17 02:06:14;;;;;;;29.73;23.30;;;;;;;;;;4994700;28;20014;-64
2021/03/17 02:08:41;;;;;;;28.08;22.25;;;;;;;;;;4994340;28;20396;-66
2021/03/17 02:11:08;;;;;;;28.58;22.77;;;;;;;;;;4995510;28;20029;-64
2021/03/17 02:13:37;;;;;;;31.60;23.15;;;;;;;;;;4978288;28;20050;-64
2021/03/17 02:16:21;;;;;;;31.92;22.67;;;;;;;;;;4977420;28;20111;-64
2021/03/17 02:19:05;;;;;;;30.25;22.63;;;;;;;;;;4995420;28;20034;-65
2021/03/17 02:21:37;;;;;;;31.65;23.60;;;;;;;;;;4995085;28;20030;-65
2021/03/17 02:24:21;;;;;;;32.22;23.23;;;;;;;;;;5010064;28;20470;-64
2021/03/17 02:26:59;;;;;;;33.15;25.95;;;;;;;;;;4994921;28;20034;-64
2021/03/17 02:29:31;;;;;;;34.25;24.15;;;;;;;;;;4995383;28;20060;-64
2021/03/17 02:32:15;;;;;;;33.22;23.83;;;;;;;;;;4995434;28;20037;-65
2021/03/17 02:34:45;;;;;;;33.25;24.83;;;;;;;;;;4993652;28;20034;-64
2021/03/17 02:37:14;;;;;;;34.20;23.73;;;;;;;;;;4994660;28;20053;-64
2021/03/17 02:39:43;;;;;;;32.22;24.55;;;;;;;;;;4977398;28;20038;-64
2021/03/17 02:42:15;;;;;;;33.00;23.15;;;;;;;;;;4995468;28;20679;-64
2021/03/17 02:44:48;;;;;;;32.83;24.27;;;;;;;;;;5010126;28;20041;-64
2021/03/17 02:47:15;;;;;;;34.90;22.90;;;;;;;;;;4977436;28;20026;-68
2021/03/17 02:49:41;;;;;;;34.17;24.45;;;;;;;;;;4977334;28;20057;-69
2021/03/17 02:52:08;;;;;;;32.72;24.20;;;;;;;;;;5009789;28;20130;-69
2021/03/17 02:54:35;;;;;;;33.88;24.10;;;;;;;;;;4995002;28;20053;-69
2021/03/17 02:57:05;;;;;;;35.55;25.65;;;;;;;;;;5009778;28;20034;-69
2021/03/17 02:59:30;;;;;;;35.85;24.42;;;;;;;;;;4977202;28;20406;-68
2021/03/17 03:01:57;;;;;;;36.90;25.58;;;;;;;;;;4994597;28;20038;-69
2021/03/17 03:04:24;;;;;;;32.90;24.35;;;;;;;;;;4994674;28;20555;-69
2021/03/17 03:06:51;;;;;;;35.42;26.02;;;;;;;;;;4994485;28;20033;-69
2021/03/17 03:09:18;;;;;;;35.83;25.25;;;;;;;;;;4994457;28;20022;-69
2021/03/17 03:11:44;;;;;;;35.20;26.05;;;;;;;;;;4994309;28;20034;-69
2021/03/17 03:14:10;;;;;;;33.53;22.73;;;;;;;;;;4994325;28;20026;-69
2021/03/17 03:16:38;;;;;;;36.67;23.83;;;;;;;;;;4994066;28;20057;-69
2021/03/17 03:19:06;;;;;;;34.35;25.40;;;;;;;;;;4994121;28;20034;-69
2021/03/17 03:21:31;;;;;;;34.05;24.83;;;;;;;;;;4994102;28;20049;-69
2021/03/17 03:23:57;;;;;;;30.52;23.05;;;;;;;;;;4994192;28;20438;-69
2021/03/17 03:26:22;;;;;;;38.15;25.92;;;;;;;;;;5009188;28;20068;-69
2021/03/17 03:28:49;;;;;;;37.33;23.88;;;;;;;;;;4994114;28;20029;-68
2021/03/17 03:31:15;;;;;;;36.42;25.13;;;;;;;;;;4994120;28;20040;-68
2021/03/17 03:33:41;;;;;;;32.90;23.38;;;;;;;;;;4993757;28;20026;-68
2021/03/17 03:36:09;;;;;;;34.20;24.60;;;;;;;;;;4993717;28;20062;-68
2021/03/17 03:38:34;;;;;;;36.45;24.55;;;;;;;;;;4994170;28;20074;-69
2021/03/17 03:41:00;;;;;;;32.92;23.77;;;;;;;;;;4994242;28;20046;-69
2021/03/17 03:43:26;;;;;;;32.42;23.70;;;;;;;;;;4994183;28;20026;-69
2021/03/17 03:45:52;;;;;;;33.38;22.95;;;;;;;;;;4976758;28;20498;-69
2021/03/17 03:48:17;;;;;;;33.45;23.25;;;;;;;;;;4994068;28;20037;-69
2021/03/17 03:50:44;;;;;;;31.48;23.92;;;;;;;;;;4993993;28;20474;-69
2021/03/17 03:53:19;;;;;;;32.40;22.70;;;;;;;;;;4993974;28;20023;-69
2021/03/17 03:55:53;;;;;;;37.63;24.52;;;;;;;;;;4994027;28;20034;-69
2021/03/17 03:58:22;;;;;;;33.15;22.08;;;;;;;;;;4993808;28;20022;-68
2021/03/17 04:00:48;;;;;;;31.60;22.65;;;;;;;;;;4993662;28;20029;-69
2021/03/17 04:03:14;;;;;;;51.08;29.65;;;;;;;;;;4993699;28;20058;-69
2021/03/17 04:05:41;;;;;;;42.25;26.23;;;;;;;;;;4993743;28;20151;-69
2021/03/17 04:08:11;;;;;;;34.72;22.90;;;;;;;;;;4993673;28;20026;-69
2021/03/17 04:10:38;;;;;;;70.28;32.92;;;;;;;;;;4976616;28;20039;-69
2021/03/17 04:13:04;;;;;;;30.58;20.42;;;;;;;;;;4993861;28;20046;-69
2021/03/17 04:15:31;;;;;;;32.20;20.63;;;;;;;;;;4993026;28;20054;-70
2021/03/17 04:18:01;;;;;;;27.63;18.13;;;;;;;;;;4993496;28;20163;-70
2021/03/17 04:20:29;;;;;;;24.23;17.85;;;;;;;;;;5008701;28;20443;-69
2021/03/17 04:22:55;;;;;;;57.90;30.35;;;;;;;;;;4976250;28;20057;-69
2021/03/17 04:25:21;;;;;;;31.10;19.77;;;;;;;;;;4993705;28;20514;-70
2021/03/17 04:27:47;;;;;;;27.98;18.92;;;;;;;;;;5008780;28;20065;-69
2021/03/17 04:30:13;;;;;;;39.70;23.50;;;;;;;;;;4993297;28;20014;-69
2021/03/17 04:32:39;;;;;;;29.85;21.45;;;;;;;;;;4997430;28;20038;-69
2021/03/17 04:35:06;;;;;;;64.22;27.75;;;;;;;;;;5012223;28;20089;-69
2021/03/17 04:37:31;;;;;;;44.90;23.70;;;;;;;;;;5012497;28;20463;-69
2021/03/17 04:39:58;;;;;;;130.98;42.95;;;;;;;;;;4997283;28;20085;-69
2021/03/17 04:42:24;;;;;;;36.97;23.17;;;;;;;;;;4997104;28;20459;-69
2021/03/17 04:44:50;;;;;;;68.35;30.10;;;;;;;;;;4997185;28;20029;-69
2021/03/17 04:47:16;;;;;;;33.45;22.08;;;;;;;;;;4996952;28;20497;-68
2021/03/17 04:49:43;;;;;;;31.38;21.23;;;;;;;;;;4997074;28;20030;-69
2021/03/17 04:52:10;;;;;;;36.55;21.13;;;;;;;;;;5012361;28;20039;-69
2021/03/17 04:54:36;;;;;;;30.67;18.08;;;;;;;;;;4996744;28;20023;-69
2021/03/17 04:57:01;;;;;;;32.15;20.25;;;;;;;;;;5011834;28;20030;-69
2021/03/17 04:59:27;;;;;;;124.57;70.20;;;;;;;;;;4996910;28;20455;-69
2021/03/17 05:01:52;;;;;;;293.20;143.20;;;;;;;;;;4996925;28;20026;-69
2021/03/17 05:04:18;;;;;;;211.65;103.35;;;;;;;;;;4996912;28;20015;-69
2021/03/17 05:06:45;;;;;;;95.60;49.03;;;;;;;;;;5011765;28;20324;-69
2021/03/17 05:09:11;;;;;;;147.18;71.47;;;;;;;;;;4996594;28;20026;-69
2021/03/17 05:11:39;;;;;;;459.17;213.57;;;;;;;;;;4996683;28;20098;-69
2021/03/17 05:14:05;;;;;;;133.68;68.60;;;;;;;;;;4996639;28;20038;-69
2021/03/17 05:16:32;;;;;;;28.75;20.35;;;;;;;;;;4996375;28;20084;-69
2021/03/17 05:18:58;;;;;;;44.33;24.77;;;;;;;;;;4995229;28;20031;-69
2021/03/17 05:21:24;;;;;;;119.78;63.10;;;;;;;;;;4996646;28;20046;-69
2021/03/17 05:23:50;;;;;;;25.83;18.88;;;;;;;;;;4995944;28;20019;-69
2021/03/17 05:26:16;;;;;;;22.60;17.10;;;;;;;;;;4996472;28;20057;-69
2021/03/17 05:28:42;;;;;;;50.22;27.13;;;;;;;;;;4996142;28;20462;-69
2021/03/17 05:31:08;;;;;;;82.60;41.53;;;;;;;;;;4996077;28;20037;-69
2021/03/17 05:33:35;;;;;;;26.50;18.08;;;;;;;;;;5011398;28;20771;-69
2021/03/17 05:36:00;;;;;;;44.90;25.23;;;;;;;;;;4996242;28;20034;-69
2021/03/17 05:38:26;;;;;;;24.20;18.42;;;;;;;;;;4996201;28;20029;-69
2021/03/17 05:40:54;;;;;;;26.38;19.02;;;;;;;;;;4996079;28;20054;-69
2021/03/17 05:43:20;;;;;;;26.98;19.17;;;;;;;;;;4995984;28;20069;-69
2021/03/17 05:45:46;;;;;;;24.23;17.63;;;;;;;;;;4996098;28;20118;-69
2021/03/17 05:48:15;;;;;;;25.35;18.35;;;;;;;;;;5011126;28;20117;-68
2021/03/17 05:50:40;;;;;;;72.90;38.17;;;;;;;;;;5010848;28;20045;-68
2021/03/17 05:53:06;;;;;;;28.83;19.88;;;;;;;;;;4978596;28;20030;-68
2021/03/17 05:55:32;;;;;;;29.70;20.48;;;;;;;;;;4995735;28;20143;-68
2021/03/17 05:57:58;;;;;;;22.15;15.00;;;;;;;;;;4995594;28;20044;-67
2021/03/17 06:00:23;;;;;;;28.00;20.40;;;;;;;;;;4995663;28;20113;-68
2021/03/17 06:02:49;;;;;;;99.65;52.28;;;;;;;;;;4995712;28;20097;-67
2021/03/17 06:05:17;;;;;;;44.33;28.63;;;;;;;;;;4981325;28;20031;-68
2021/03/17 06:08:04;;;;;;;67.97;39.42;;;;;;;;;;5013040;28;20018;-67
2021/03/17 06:10:30;;;;;;;55.25;32.92;;;;;;;;;;5015085;28;20112;-68
2021/03/17 06:13:00;;;;;;;66.90;38.00;;;;;;;;;;5014295;28;20064;-68
2021/03/17 06:15:26;;;;;;;53.05;31.02;;;;;;;;;;4997239;28;20073;-68
2021/03/17 06:17:57;;;;;;;54.78;33.72;;;;;;;;;;5014689;28;20030;-68
2021/03/17 06:20:22;;;;;;;;;;;;;;;;;;5015631;28;20026;-68
2021/03/17 06:22:48;;;;;;;30.55;20.17;;;;;;;;;;5015024;28;19979;-68
2021/03/17 06:25:14;;;;;;;29.45;18.65;;;;;;;;;;5014794;28;20064;-68
2021/03/17 06:27:41;;;;;;;28.45;19.10;;;;;;;;;;4997359;28;20407;-68
2021/03/17 06:30:07;;;;;;;25.77;19.20;;;;;;;;;;5014936;28;20028;-68
2021/03/17 06:32:33;;;;;;;22.60;16.85;;;;;;;;;;5029907;28;20026;-68
2021/03/17 06:34:59;;;;;;;24.23;17.77;;;;;;;;;;5014567;28;20034;-68
2021/03/17 06:37:37;;;;;;;25.17;17.20;;;;;;;;;;5014554;28;20025;-68
2021/03/17 06:40:18;;;;;;;23.35;17.40;;;;;;;;;;5014708;28;20033;-68
2021/03/17 06:42:43;;;;;;;23.55;17.35;;;;;;;;;;5014645;28;20413;-68
2021/03/17 06:45:09;;;;;;;23.23;16.38;;;;;;;;;;5013882;28;20021;-64
2021/03/17 06:47:34;;;;;;;21.73;13.98;;;;;;;;;;5014440;28;20124;-68
2021/03/17 06:50:05;;;;;;;25.13;17.70;;;;;;;;;;5014282;28;20021;-68
2021/03/17 06:52:38;;;;;;;24.83;16.10;;;;;;;;;;5013876;28;20026;-68
2021/03/17 06:55:17;;;;;;;23.15;18.00;;;;;;;;;;5013499;28;20449;-68
2021/03/17 06:57:47;;;;;;;28.88;19.15;;;;;;;;;;5013866;28;20030;-68
2021/03/17 07:00:15;;;;;;;21.33;14.15;;;;;;;;;;5022253;28;20037;-68
2021/03/17 07:02:48;;;;;;;14.73;10.93;;;;;;;;;;5009327;28;20021;-67
2021/03/17 07:05:15;;;;;;;28.42;19.38;;;;;;;;;;4994313;28;20537;-68
2021/03/17 07:07:47;;;;;;;24.05;17.42;;;;;;;;;;4994186;28;20499;-70
2021/03/17 07:10:13;;;;;;;20.65;14.60;;;;;;;;;;4994027;28;20113;-70
2021/03/17 07:12:38;;;;;;;19.92;13.13;;;;;;;;;;5008993;28;20052;-70
2021/03/17 07:15:11;;;;;;;21.95;13.35;;;;;;;;;;4993626;28;20137;-70
2021/03/17 07:17:36;;;;;;;20.50;14.40;;;;;;;;;;4994120;28;20053;-70
2021/03/17 07:20:05;;;;;;;21.15;16.17;;;;;;;;;;5009039;28;20050;-70
2021/03/17 07:22:31;;;;;;;19.50;12.63;;;;;;;;;;4993928;28;20549;-70
2021/03/17 07:25:00;;;;;;;20.73;16.10;;;;;;;;;;4994061;28;20110;-70
2021/03/17 07:27:27;;;;;;;20.70;14.65;;;;;;;;;;4994247;28;20093;-70
2021/03/17 07:29:58;;;;;;;23.85;17.15;;;;;;;;;;4994176;28;20386;-70
2021/03/17 07:32:27;;;;;;;21.73;15.50;;;;;;;;;;5009265;28;20030;-70
2021/03/17 07:34:53;;;;;;;23.08;16.55;;;;;;;;;;4993992;28;20026;-69
2021/03/17 07:37:28;;;;;;;22.05;15.63;;;;;;;;;;4993889;28;20063;-69
2021/03/17 07:39:57;;;;;;;23.45;15.15;;;;;;;;;;4993898;28;20062;-69
2021/03/17 07:42:23;;;;;;;22.17;15.30;;;;;;;;;;4992560;28;20418;-70
2021/03/17 07:44:49;;;;;;;27.52;20.58;;;;;;;;;;4993812;28;20034;-70
2021/03/17 07:47:14;;;;;;;261.25;199.02;;;;;;;;;;4976163;28;20482;-70
2021/03/17 07:49:41;;;;;;;194.15;118.22;;;;;;;;;;4993358;28;20038;-70
2021/03/17 07:52:08;;;;;;;235.35;137.27;;;;;;;;;;4992328;28;20129;-70
2021/03/17 07:54:36;;;;;;;554.67;350.13;;;;;;;;;;4992237;28;20086;-70
2021/03/17 07:57:03;;;;;;;913.17;587.70;;;;;;;;;;4975834;28;20026;-69
2021/03/17 07:59:29;;;;;;;417.73;221.88;;;;;;;;;;4993034;28;20062;-69
2021/03/17 08:01:56;;;;;;;936.70;642.40;;;;;;;;;;4993284;28;20121;-70
2021/03/17 08:04:25;;;;;;;727.30;501.17;;;;;;;;;;4993072;28;20030;-70
2021/03/17 08:06:51;;;;;;;457.90;379.02;;;;;;;;;;4995558;28;20044;-69
2021/03/17 08:09:17;;;;;;;95.68;77.50;;;;;;;;;;5012624;28;20034;-69
2021/03/17 08:11:42;;;;;;;129.27;112.38;;;;;;;;;;5008331;28;20026;-69
2021/03/17 08:14:12;;;;;;;217.63;186.48;;;;;;;;;;4999564;28;20041;-70
2021/03/17 08:16:38;;;;;;;60.55;52.80;;;;;;;;;;5017038;28;20081;-70
2021/03/17 08:19:19;;;;;;;35.45;28.52;;;;;;;;;;5016816;28;20038;-70
2021/03/17 08:21:46;;;;;;;21.10;14.05;;;;;;;;;;4990387;28;20030;-68
2021/03/17 08:24:38;;;;;;;71.53;30.67;;;;;;;;;;4999227;28;20437;-68
2021/03/17 08:27:06;;;;;;;19.65;14.90;;;;;;;;;;5016832;28;20112;-70
2021/03/17 08:29:36;;;;;;;288.00;177.85;;;;;;;;;;5016720;28;20076;-70
2021/03/17 08:32:01;;;;;;;357.80;224.77;;;;;;;;;;4999028;28;20040;-70
2021/03/17 08:34:28;;;;;;;245.93;136.57;;;;;;;;;;5016516;28;20466;-70
2021/03/17 08:36:55;;;;;;;38.90;25.40;;;;;;;;;;4999195;28;20029;-70
2021/03/17 08:39:30;;;;;;;746.03;450.63;;;;;;;;;;5016482;28;20076;-70
2021/03/17 08:41:56;;;;;;;579.13;308.88;;;;;;;;;;5032051;28;20393;-70
2021/03/17 08:44:21;;;;;;;211.88;111.38;;;;;;;;;;5016568;28;20097;-70
2021/03/17 08:46:48;;;;;;;488.42;190.60;;;;;;;;;;5016443;28;20466;-70
2021/03/17 08:49:14;;;;;;;898.17;460.70;;;;;;;;;;4999232;28;20524;-70
2021/03/17 08:51:46;;;;;;;70.70;37.05;;;;;;;;;;5031759;28;20042;-70
2021/03/17 08:54:30;;;;;;;206.18;85.88;;;;;;;;;;5016467;28;20026;-70
2021/03/17 08:57:00;;;;;;;219.10;82.88;;;;;;;;;;5016452;28;20040;-68
2021/03/17 08:59:40;;;;;;;399.42;185.75;;;;;;;;;;5016238;28;20029;-68
2021/03/17 09:02:26;;;;;;;867.33;382.70;;;;;;;;;;5016630;28;20077;-68
2021/03/17 09:04:52;;;;;;;45.13;23.13;;;;;;;;;;5005094;28;20069;-68
2021/03/17 09:07:20;;;;;;;442.25;163.40;;;;;;;;;;4996972;28;20036;-68
2021/03/17 09:09:48;;;;;;;514.00;173.90;;;;;;;;;;4995389;28;20038;-68
2021/03/17 09:12:15;;;;;;;144.38;48.85;;;;;;;;;;4996565;28;20113;-68
2021/03/17 09:14:41;;;;;;;1296.30;505.13;;;;;;;;;;4978986;28;20026;-68
2021/03/17 09:17:08;;;;;;;1038.72;430.45;;;;;;;;;;5011295;28;20038;-68
2021/03/17 09:19:52;;;;;;;465.80;171.27;;;;;;;;;;4996380;28;20043;-68
2021/03/17 09:22:37;;;;;;;528.97;183.45;;;;;;;;;;4996560;28;20045;-68
2021/03/17 09:25:13;;;;;;;933.15;384.67;;;;;;;;;;4979338;28;20073;-68
2021/03/17 09:27:52;;;;;;;75.80;33.80;;;;;;;;;;4996562;28;20035;-68
2021/03/17 09:30:18;;;;;;;357.55;117.55;;;;;;;;;;5011550;28;20031;-68
2021/03/17 09:32:44;;;;;;;807.88;284.90;;;;;;;;;;4996066;28;20085;-68
2021/03/17 09:35:10;;;;;;;774.92;277.58;;;;;;;;;;4996291;28;20038;-68
2021/03/17 09:37:38;;;;;;;1569.10;605.83;;;;;;;;;;4996262;28;20058;-68
2021/03/17 09:40:06;;;;;;;579.97;209.02;;;;;;;;;;4996189;28;20086;-68
2021/03/17 09:42:35;;;;;;;749.30;268.98;;;;;;;;;;5011183;28;20426;-68
2021/03/17 09:45:02;;;;;;;738.95;305.25;;;;;;;;;;4996239;28;20023;-68
2021/03/17 09:47:28;;;;;;;1390.30;611.97;;;;;;;;;;5010940;28;20015;-68
2021/03/17 09:49:54;;;;;;;363.10;146.13;;;;;;;;;;4995792;28;20030;-69
2021/03/17 09:52:19;;;;;;;525.95;225.40;;;;;;;;;;4995808;28;20462;-69
2021/03/17 09:54:45;;;;;;;495.02;228.95;;;;;;;;;;4978116;28;20041;-69
2021/03/17 09:57:10;;;;;;;682.35;355.42;;;;;;;;;;4987389;28;20059;-69
2021/03/17 09:59:40;;;;;;;249.73;118.13;;;;;;;;;;4990997;28;20040;-69
2021/03/17 10:02:06;;;;;;;187.53;82.57;;;;;;;;;;4994176;28;20046;-69
2021/03/17 10:04:31;;;;;;;404.20;206.73;;;;;;;;;;5010574;28;20112;-69
2021/03/17 10:06:57;;;;;;;120.22;55.75;;;;;;;;;;4977633;28;20404;-69
2021/03/17 10:09:30;;;;;;;320.63;131.38;;;;;;;;;;4995779;28;20026;-69
2021/03/17 10:12:06;;;;;;;819.83;431.17;;;;;;;;;;4995443;28;20117;-69
2021/03/17 10:14:32;;;;;;;188.95;93.78;;;;;;;;;;4993591;28;20030;-69
2021/03/17 10:16:59;;;;;;;41.53;26.15;;;;;;;;;;5013780;28;20054;-68
2021/03/17 10:19:24;;;;;;;92.13;51.45;;;;;;;;;;5014844;28;20041;-68
2021/03/17 10:21:53;;;;;;;159.68;91.47;;;;;;;;;;5014384;28;20018;-68
2021/03/17 10:24:32;;;;;;;80.45;45.78;;;;;;;;;;5007584;28;20026;-69
2021/03/17 10:26:57;;;;;;;160.70;104.30;;;;;;;;;;5013491;28;20072;-69
2021/03/17 10:29:23;;;;;;;172.63;88.85;;;;;;;;;;5013454;28;20022;-69
2021/03/17 10:31:50;;;;;;;145.27;78.50;;;;;;;;;;5014552;28;20414;-69
2021/03/17 10:34:15;;;;;;;72.18;42.65;;;;;;;;;;5013663;28;20105;-69
2021/03/17 10:36:41;;;;;;;19.52;11.55;;;;;;;;;;5013884;28;20460;-67
2021/03/17 10:39:06;;;;;;;21.58;14.18;;;;;;;;;;5014113;28;20567;-68
2021/03/17 10:41:39;;;;;;;27.63;17.30;;;;;;;;;;5014153;28;20120;-68
2021/03/17 10:44:18;;;;;;;16.40;11.30;;;;;;;;;;5013697;28;20120;-69
2021/03/17 10:46:59;;;;;;;19.88;13.25;;;;;;;;;;5012763;28;20026;-68
2021/03/17 10:49:25;;;;;;;32.75;20.23;;;;;;;;;;5012120;28;20041;-68
2021/03/17 10:51:51;;;;;;;21.73;15.10;;;;;;;;;;4995528;28;20034;-68
2021/03/17 10:54:25;;;;;;;82.88;58.22;;;;;;;;;;5013166;28;20104;-68
2021/03/17 10:56:51;;;;;;;46.35;26.42;;;;;;;;;;5028272;28;20607;-68
2021/03/17 10:59:27;;;;;;;31.20;24.17;;;;;;;;;;5013415;28;20033;-68
2021/03/17 11:02:11;;;;;;;27.02;21.77;;;;;;;;;;5003768;28;20037;-68
2021/03/17 11:04:36;;;;;;;32.78;23.42;;;;;;;;;;5012518;28;20500;-68
2021/03/17 11:07:02;;;;;;;24.02;17.35;;;;;;;;;;5012958;28;20018;-68
2021/03/17 11:09:37;;;;;;;32.78;20.23;;;;;;;;;;5012191;28;20123;-68
2021/03/17 11:12:10;;;;;;;15.18;10.85;;;;;;;;;;5011884;28;20430;-69
2021/03/17 11:14:36;;;;;;;12.45;9.68;;;;;;;;;;5012834;28;20026;-68
2021/03/17 11:17:08;;;;;;;20.50;15.93;;;;;;;;;;5013114;28;20124;-69
2021/03/17 11:19:34;;;;;;;21.83;15.93;;;;;;;;;;4995202;28;20030;-68
2021/03/17 11:21:59;;;;;;;18.05;12.43;;;;;;;;;;5012791;28;20018;-68
2021/03/17 11:24:25;;;;;;;21.00;17.10;;;;;;;;;;5012945;28;20493;-68
2021/03/17 11:26:51;;;;;;;23.05;15.32;;;;;;;;;;5012783;28;20108;-68
2021/03/17 11:29:21;;;;;;;30.88;17.90;;;;;;;;;;4995043;28;20037;-68
2021/03/17 11:31:47;;;;;;;26.92;18.73;;;;;;;;;;5027157;28;20037;-69
2021/03/17 11:34:13;;;;;;;21.08;15.15;;;;;;;;;;5011928;28;20026;-69
2021/03/17 11:36:39;;;;;;;34.35;17.50;;;;;;;;;;5012642;28;20037;-69
2021/03/17 11:39:06;;;;;;;23.25;15.35;;;;;;;;;;5012588;28;20033;-69
2021/03/17 11:41:32;;;;;;;24.30;15.00;;;;;;;;;;5012115;28;20486;-69
2021/03/17 11:43:57;;;;;;;22.48;14.20;;;;;;;;;;5012797;28;20025;-69
2021/03/17 11:46:23;;;;;;;22.70;15.95;;;;;;;;;;4994753;28;20429;-69
2021/03/17 11:48:49;;;;;;;24.20;15.50;;;;;;;;;;5013291;28;20133;-69
2021/03/17 11:51:15;;;;;;;86.68;52.25;;;;;;;;;;4995141;28;20033;-69
2021/03/17 11:53:42;;;;;;;70.05;41.13;;;;;;;;;;5028601;28;20045;-69
2021/03/17 11:56:08;;;;;;;36.92;21.52;;;;;;;;;;4995601;28;20069;-69
2021/03/17 11:58:35;;;;;;;422.05;215.77;;;;;;;;;;5013213;28;20374;-69
2021/03/17 12:01:02;;;;;;;146.90;77.53;;;;;;;;;;5013342;28;20022;-69
2021/03/17 12:03:27;;;;;;;162.80;68.40;;;;;;;;;;5013365;28;20071;-69
2021/03/17 12:05:53;;;;;;;527.35;236.52;;;;;;;;;;5013575;28;20104;-68
2021/03/17 12:08:19;;;;;;;347.15;154.70;;;;;;;;;;5013449;28;20028;-68
2021/03/17 12:10:47;;;;;;;437.23;206.32;;;;;;;;;;4995863;28;20038;-69
2021/03/17 12:13:12;;;;;;;523.80;257.95;;;;;;;;;;5013032;28;20045;-69
2021/03/17 12:15:39;;;;;;;642.25;306.63;;;;;;;;;;5012535;28;20073;-69
2021/03/17 12:18:04;;;;;;;529.70;196.10;;;;;;;;;;5028508;28;20029;-69
2021/03/17 12:20:31;;;;;;;281.35;102.20;;;;;;;;;;5013169;28;20022;-69
2021/03/17 12:22:59;;;;;;;370.52;121.97;;;;;;;;;;5013183;28;20010;-70
2021/03/17 12:25:25;;;;;;;757.55;281.10;;;;;;;;;;5013495;28;20037;-69
2021/03/17 12:27:50;;;;;;;933.88;348.67;;;;;;;;;;5013209;28;20363;-69
2021/03/17 12:30:17;;;;;;;683.40;243.50;;;;;;;;;;5012880;28;20073;-68
2021/03/17 12:32:43;;;;;;;24.33;13.27;;;;;;;;;;5028513;28;20458;-68
2021/03/17 12:35:10;;;;;;;615.88;218.07;;;;;;;;;;5012957;28;20041;-69
2021/03/17 12:37:35;;;;;;;36.38;18.50;;;;;;;;;;5013132;28;20033;-69
2021/03/17 12:40:01;;;;;;;921.53;403.92;;;;;;;;;;4995316;28;20030;-68
2021/03/17 12:42:27;;;;;;;713.47;251.05;;;;;;;;;;5028240;28;20018;-69
2021/03/17 12:44:52;;;;;;;528.47;183.30;;;;;;;;;;5013083;28;20225;-69
2021/03/17 12:47:19;;;;;;;702.75;269.02;;;;;;;;;;5013048;28;20116;-68
2021/03/17 12:49:44;;;;;;;422.23;144.52;;;;;;;;;;5012911;28;20040;-69
2021/03/17 12:52:11;;;;;;;996.25;447.40;;;;;;;;;;5014168;28;20462;-69
2021/03/17 12:54:36;;;;;;;1091.85;479.95;;;;;;;;;;5016400;28;20034;-69
2021/03/17 12:57:02;;;;;;;130.05;50.47;;;;;;;;;;5016651;28;20030;-69
2021/03/17 12:59:28;;;;;;;249.25;88.35;;;;;;;;;;5016580;28;20441;-69
2021/03/17 13:01:53;;;;;;;569.88;224.10;;;;;;;;;;5016606;28;20049;-69
2021/03/17 13:04:19;;;;;;;743.65;355.70;;;;;;;;;;5031744;28;20061;-69
2021/03/17 13:06:44;;;;;;;430.85;200.18;;;;;;;;;;5031672;28;20022;-69
2021/03/17 13:09:10;;;;;;;476.60;184.95;;;;;;;;;;5014993;28;20076;-69
2021/03/17 13:11:36;;;;;;;347.33;129.57;;;;;;;;;;5031068;28;20057;-68
2021/03/17 13:14:03;;;;;;;313.67;136.93;;;;;;;;;;5016292;28;20117;-68
2021/03/17 13:16:28;;;;;;;360.00;148.93;;;;;;;;;;5031037;28;20069;-68
2021/03/17 13:18:54;;;;;;;186.95;81.32;;;;;;;;;;5015889;28;20469;-68
2021/03/17 13:21:20;;;;;;;206.50;104.47;;;;;;;;;;5015838;28;20030;-68
2021/03/17 13:23:47;;;;;;;107.40;52.65;;;;;;;;;;5015783;28;20068;-68
2021/03/17 13:26:13;;;;;;;61.13;34.10;;;;;;;;;;4998112;28;20125;-68
2021/03/17 13:28:38;;;;;;;189.73;94.68;;;;;;;;;;5015630;28;20079;-68
2021/03/17 13:31:04;;;;;;;74.70;42.85;;;;;;;;;;5015669;28;20021;-68
2021/03/17 13:33:29;;;;;;;267.08;145.57;;;;;;;;;;5015437;28;20037;-68
2021/03/17 13:35:55;;;;;;;105.82;61.53;;;;;;;;;;5015784;28;20040;-68
2021/03/17 13:38:21;;;;;;;30.83;22.40;;;;;;;;;;5015536;28;20032;-68
2021/03/17 13:40:47;;;;;;;19.27;15.63;;;;;;;;;;5015439;28;20014;-68
2021/03/17 13:43:13;;;;;;;49.72;33.75;;;;;;;;;;5015437;28;20053;-68
2021/03/17 13:45:39;;;;;;;27.48;22.15;;;;;;;;;;5015377;28;20100;-68
2021/03/17 13:48:05;;;;;;;33.28;29.73;;;;;;;;;;5015401;28;20504;-68
2021/03/17 13:50:30;;;;;;;45.67;36.92;;;;;;;;;;5013888;28;20026;-68
2021/03/17 13:52:57;;;;;;;25.98;21.48;;;;;;;;;;5013828;28;20486;-68
2021/03/17 13:55:23;;;;;;;16.40;13.50;;;;;;;;;;5014418;28;20466;-68
2021/03/17 13:57:50;;;;;;;50.42;26.83;;;;;;;;;;5015160;28;20022;-68
2021/03/17 14:00:15;;;;;;;27.38;19.00;;;;;;;;;;5015159;28;20021;-68
2021/03/17 14:02:41;;;;;;;47.75;25.00;;;;;;;;;;5015149;28;20052;-68
2021/03/17 14:05:07;;;;;;;43.25;21.42;;;;;;;;;;4997594;28;20026;-68
2021/03/17 14:07:32;;;;;;;23.88;13.50;;;;;;;;;;4997598;28;20022;-68
2021/03/17 14:09:58;;;;;;;123.93;60.08;;;;;;;;;;5028456;28;20454;-68
2021/03/17 14:12:24;;;;;;;54.30;27.20;;;;;;;;;;5014053;28;20030;-68
2021/03/17 14:14:49;;;;;;;63.17;31.65;;;;;;;;;;5014159;28;20037;-68
2021/03/17 14:17:15;;;;;;;49.72;27.48;;;;;;;;;;5015041;28;20033;-67
2021/03/17 14:19:40;;;;;;;31.27;17.92;;;;;;;;;;5014711;28;20030;-66